Nearby METAR Reports

 

LEVT - Vitoria, Spain
Distance from station: O 10km
Actualización: 26/08/2019 04:30
Cubierto
Cubierto
 Viento del E
Viento: E 4 km/h
Temperatura: 18°C
Rocío: 17°C
Humedad: 94%
Barómetro: 1018 hPa
Clouds: Cubierto
Visibility: 10 km
Cloud details: Parcialmente nuboso 244 m
Cubierto 457 m
2019/08/26 02:30 LEVT 260230Z 08002KT 9999 SCT008 OVC015 18/17 Q1018
LELO - Logrono/Agoncill, Spain
Distance from station: SSE 51km
Actualización: 26/08/2019 04:30
Despejado
Despejado
 Viento del calm
Viento: Calma
Temperatura: 18°C
Rocío: 16°C
Humedad: 88%
Barómetro: 1017 hPa
Resumen: Despejado
Visibility: greater than 10 km
2019/08/26 02:30 LELO 260230Z AUTO 00000KT CAVOK 18/16 Q1017
LEBB - Bilbao/Sondica, Spain
Distance from station: NNO 54km
Actualización: 26/08/2019 04:30
Muy nuboso
Muy nuboso
 Viento del varies
Viento: varies 4 km/h
Temperatura: 21°C
Rocío: 19°C
Humedad: 88%
Barómetro: 1017 hPa
Clouds: Muy nuboso
Visibility: 10 km
Cloud details: Muy nuboso 366 m
2019/08/26 02:30 LEBB 260230Z AUTO VRB02KT 9999 BKN012 21/19 Q1017
 
LEPP - Pamplona/Noain, Spain
Distance from station: E 78km
Actualización: 26/08/2019 04:30
Despejado
Despejado
 Viento del varies
Viento: varies 4 km/h
Temperatura: 18°C
Rocío: 16°C
Humedad: 88%
Barómetro: 1018 hPa
Clouds: Despejado
Visibility: 10 km
2019/08/26 02:30 LEPP 260230Z AUTO VRB02KT 9999 NCD 18/16 Q1018
LESO - San Sebastian/Fu, Spain
Distance from station: NE 85km
Actualización: 26/08/2019 04:30
Cubierto
Cubierto
 Viento del E
Viento: E 9 km/h
Temperatura: 22°C
Rocío: 20°C
Humedad: 88%
Barómetro: 1017 hPa
Clouds: Cubierto
Visibility: 10 km
Cloud details: Cubierto 396 m
2019/08/26 02:30 LESO 260230Z AUTO 09005KT 9999 OVC013 22/20 Q1017
LEBG - Burgos/Villafria, Spain
Distance from station: SO 100km
Actualización: 26/08/2019 04:30
Parcialmente nuboso
Parcialmente nuboso
 Viento del varies
Viento: varies 4 km/h
Temperatura: 15°C
Rocío: 14°C
Humedad: 94%
Barómetro: 1019 hPa
Clouds: Parcialmente nuboso
Visibility: 7 km
2019/08/26 02:30 LEBG 260230Z AUTO VRB02KT 7000 NSC 15/14 Q1019
 
LFBZ - Biarritz/Anglet, France
Distance from station: NE 111km
Actualización: 26/08/2019 04:30
Cubierto
Cubierto
 Viento del ENE
Viento: ENE 7 km/h
Temperatura: 21°C
Rocío: 19°C
Humedad: 88%
Barómetro: 1017 hPa
Clouds: Cubierto
Visibility: 10 km
Cloud details: Cubierto 457 m
2019/08/26 02:30 LFBZ 260230Z AUTO 07004KT 9999 OVC015 21/19 Q1017 TEMPO BKN005
LEXJ - Santander/Paraya, Spain
Distance from station: ONO 117km
Actualización: 26/08/2019 04:30
Cubierto
Cubierto
 Viento del calm
Viento: Calma
Temperatura: 19°C
Rocío: 18°C
Humedad: 94%
Barómetro: 1016 hPa
Clouds: Cubierto
Visibility: 6 km
Cloud details: Cubierto 1036 m
2019/08/26 02:30 LEXJ 260230Z AUTO 00000KT 6000 OVC034 19/18 Q1016